sensor_id;sensor_type;location;lat;lon;timestamp;temperature;humidity
43995;DHT22;51687;52.160;5.298;2023-09-08T01:53:56;24.60;59.50
43995;DHT22;51687;52.160;5.298;2023-09-08T01:56:23;24.20;59.90
43995;DHT22;51687;52.160;5.298;2023-09-08T01:58:49;24.20;59.90
43995;DHT22;51687;52.160;5.298;2023-09-08T02:01:16;24.20;59.90
43995;DHT22;51687;52.160;5.298;2023-09-08T02:03:43;24.10;59.70
43995;DHT22;51687;52.160;5.298;2023-09-08T02:06:10;24.20;59.60
43995;DHT22;51687;52.160;5.298;2023-09-08T02:08:37;24.20;59.60
43995;DHT22;51687;52.160;5.298;2023-09-08T02:11:04;24.20;59.60
43995;DHT22;51687;52.160;5.298;2023-09-08T02:13:31;24.20;59.50
43995;DHT22;51687;52.160;5.298;2023-09-08T02:15:57;24.20;59.60
43995;DHT22;51687;52.160;5.298;2023-09-08T02:18:25;24.20;59.40
43995;DHT22;51687;52.160;5.298;2023-09-08T02:20:52;24.20;59.10
43995;DHT22;51687;52.160;5.298;2023-09-08T02:23:19;24.20;59.70
43995;DHT22;51687;52.160;5.298;2023-09-08T02:25:46;24.20;59.20
43995;DHT22;51687;52.160;5.298;2023-09-08T02:28:12;24.20;59.10
43995;DHT22;51687;52.160;5.298;2023-09-08T02:30:39;24.20;58.80
43995;DHT22;51687;52.160;5.298;2023-09-08T02:33:06;24.30;58.90
43995;DHT22;51687;52.160;5.298;2023-09-08T02:35:37;24.30;58.80
43995;DHT22;51687;52.160;5.298;2023-09-08T02:38:05;24.30;58.40
43995;DHT22;51687;52.160;5.298;2023-09-08T02:40:32;24.30;58.60
43995;DHT22;51687;52.160;5.298;2023-09-08T02:43:02;24.30;58.60
43995;DHT22;51687;52.160;5.298;2023-09-08T02:45:29;24.30;58.50
43995;DHT22;51687;52.160;5.298;2023-09-08T02:47:58;24.30;58.40
43995;DHT22;51687;52.160;5.298;2023-09-08T02:50:25;24.30;58.50
43995;DHT22;51687;52.160;5.298;2023-09-08T02:52:52;24.30;58.60
43995;DHT22;51687;52.160;5.298;2023-09-08T02:55:20;24.30;58.30
43995;DHT22;51687;52.160;5.298;2023-09-08T02:57:46;24.30;58.30
43995;DHT22;51687;52.160;5.298;2023-09-08T03:00:13;24.30;58.10
43995;DHT22;51687;52.160;5.298;2023-09-08T03:02:40;24.30;58.10
43995;DHT22;51687;52.160;5.298;2023-09-08T03:05:07;24.30;57.80
43995;DHT22;51687;52.160;5.298;2023-09-08T03:07:34;24.30;58.00
43995;DHT22;51687;52.160;5.298;2023-09-08T03:10:04;24.30;58.00
43995;DHT22;51687;52.160;5.298;2023-09-08T03:12:31;24.30;58.10
43995;DHT22;51687;52.160;5.298;2023-09-08T03:14:58;24.30;58.20
43995;DHT22;51687;52.160;5.298;2023-09-08T03:17:24;24.30;57.90
43995;DHT22;51687;52.160;5.298;2023-09-08T03:19:51;24.30;58.10
43995;DHT22;51687;52.160;5.298;2023-09-08T03:22:18;24.30;58.20
43995;DHT22;51687;52.160;5.298;2023-09-08T03:24:45;24.30;58.10
43995;DHT22;51687;52.160;5.298;2023-09-08T03:27:11;24.30;57.90
43995;DHT22;51687;52.160;5.298;2023-09-08T03:29:38;24.40;57.80
43995;DHT22;51687;52.160;5.298;2023-09-08T03:32:05;24.40;57.70
43995;DHT22;51687;52.160;5.298;2023-09-08T03:34:32;24.40;57.60
43995;DHT22;51687;52.160;5.298;2023-09-08T03:36:59;24.40;57.50
43995;DHT22;51687;52.160;5.298;2023-09-08T03:39:26;24.40;57.40
43995;DHT22;51687;52.160;5.298;2023-09-08T03:41:52;24.40;57.30
43995;DHT22;51687;52.160;5.298;2023-09-08T03:44:19;24.40;57.30
43995;DHT22;51687;52.160;5.298;2023-09-08T03:46:46;24.40;57.20
43995;DHT22;51687;52.160;5.298;2023-09-08T03:49:13;24.40;57.30
43995;DHT22;51687;52.160;5.298;2023-09-08T03:51:40;24.40;57.20
43995;DHT22;51687;52.160;5.298;2023-09-08T03:54:06;24.50;57.10
43995;DHT22;51687;52.160;5.298;2023-09-08T03:56:33;24.40;57.20
43995;DHT22;51687;52.160;5.298;2023-09-08T03:59:00;24.40;57.30
43995;DHT22;51687;52.160;5.298;2023-09-08T04:01:27;24.50;57.40
43995;DHT22;51687;52.160;5.298;2023-09-08T04:03:53;24.50;57.40
43995;DHT22;51687;52.160;5.298;2023-09-08T04:06:20;24.50;57.30
43995;DHT22;51687;52.160;5.298;2023-09-08T04:08:50;24.50;57.10
43995;DHT22;51687;52.160;5.298;2023-09-08T04:11:17;24.50;56.70
43995;DHT22;51687;52.160;5.298;2023-09-08T04:13:44;24.50;56.70
43995;DHT22;51687;52.160;5.298;2023-09-08T04:16:11;24.60;56.70
43995;DHT22;51687;52.160;5.298;2023-09-08T04:18:37;24.50;56.70
43995;DHT22;51687;52.160;5.298;2023-09-08T04:21:06;24.50;56.90
43995;DHT22;51687;52.160;5.298;2023-09-08T04:23:34;24.50;56.60
43995;DHT22;51687;52.160;5.298;2023-09-08T04:26:01;24.40;56.80
43995;DHT22;51687;52.160;5.298;2023-09-08T04:28:28;24.30;56.90
43995;DHT22;51687;52.160;5.298;2023-09-08T04:30:55;24.20;57.30
43995;DHT22;51687;52.160;5.298;2023-09-08T04:33:23;24.10;57.70
43995;DHT22;51687;52.160;5.298;2023-09-08T04:57:58;24.00;57.90
43995;DHT22;51687;52.160;5.298;2023-09-08T05:02:52;23.40;59.30
43995;DHT22;51687;52.160;5.298;2023-09-08T05:05:19;23.30;59.70
43995;DHT22;51687;52.160;5.298;2023-09-08T05:10:14;23.30;60.00
43995;DHT22;51687;52.160;5.298;2023-09-08T12:32:29;23.20;60.30
43995;DHT22;51687;52.160;5.298;2023-09-08T12:34:57;27.20;60.00
43995;DHT22;51687;52.160;5.298;2023-09-08T12:52:14;27.20;59.70
43995;DHT22;51687;52.160;5.298;2023-09-08T12:54:41;28.00;56.80
43995;DHT22;51687;52.160;5.298;2023-09-08T13:04:30;28.00;57.10
43995;DHT22;51687;52.160;5.298;2023-09-08T13:06:57;28.30;56.10
43995;DHT22;51687;52.160;5.298;2023-09-08T13:29:05;28.30;56.30
43995;DHT22;51687;52.160;5.298;2023-09-08T13:31:32;28.60;56.20
43995;DHT22;51687;52.160;5.298;2023-09-08T13:33:59;28.60;55.20
43995;DHT22;51687;52.160;5.298;2023-09-08T13:36:26;28.60;53.80
43995;DHT22;51687;52.160;5.298;2023-09-08T13:38:52;28.70;53.40
43995;DHT22;51687;52.160;5.298;2023-09-08T13:41:19;28.80;53.90
43995;DHT22;51687;52.160;5.298;2023-09-08T13:43:46;28.80;53.80
43995;DHT22;51687;52.160;5.298;2023-09-08T13:46:13;28.90;53.80
43995;DHT22;51687;52.160;5.298;2023-09-08T13:48:40;29.00;54.00
43995;DHT22;51687;52.160;5.298;2023-09-08T13:51:09;29.00;53.60
43995;DHT22;51687;52.160;5.298;2023-09-08T13:53:36;29.10;53.80
43995;DHT22;51687;52.160;5.298;2023-09-08T13:56:12;29.10;53.80
43995;DHT22;51687;52.160;5.298;2023-09-08T13:58:41;29.10;53.60
43995;DHT22;51687;52.160;5.298;2023-09-08T14:01:16;29.10;53.70
43995;DHT22;51687;52.160;5.298;2023-09-08T14:03:46;29.00;54.20
43995;DHT22;51687;52.160;5.298;2023-09-08T14:06:15;29.00;53.60
43995;DHT22;51687;52.160;5.298;2023-09-08T14:08:47;29.00;53.60
43995;DHT22;51687;52.160;5.298;2023-09-08T14:11:34;29.00;54.40
43995;DHT22;51687;52.160;5.298;2023-09-08T14:14:21;29.00;53.90
43995;DHT22;51687;52.160;5.298;2023-09-08T14:16:48;29.00;53.70
43995;DHT22;51687;52.160;5.298;2023-09-08T14:19:15;29.00;54.20
43995;DHT22;51687;52.160;5.298;2023-09-08T14:21:42;29.00;53.90
43995;DHT22;51687;52.160;5.298;2023-09-08T14:24:08;28.90;54.20
43995;DHT22;51687;52.160;5.298;2023-09-08T14:26:35;28.90;55.00
43995;DHT22;51687;52.160;5.298;2023-09-08T14:29:02;28.90;55.00
43995;DHT22;51687;52.160;5.298;2023-09-08T14:31:29;29.00;55.10
43995;DHT22;51687;52.160;5.298;2023-09-08T14:33:57;29.00;54.00
43995;DHT22;51687;52.160;5.298;2023-09-08T14:36:24;29.00;54.40
43995;DHT22;51687;52.160;5.298;2023-09-08T14:38:50;29.00;54.90
43995;DHT22;51687;52.160;5.298;2023-09-08T14:41:17;28.90;54.50
43995;DHT22;51687;52.160;5.298;2023-09-08T14:43:44;28.90;54.30
43995;DHT22;51687;52.160;5.298;2023-09-08T14:46:12;28.90;54.40
43995;DHT22;51687;52.160;5.298;2023-09-08T14:48:39;29.00;54.50
43995;DHT22;51687;52.160;5.298;2023-09-08T14:51:07;28.90;54.90
43995;DHT22;51687;52.160;5.298;2023-09-08T14:53:33;28.90;55.20
43995;DHT22;51687;52.160;5.298;2023-09-08T14:56:01;28.90;55.20
43995;DHT22;51687;52.160;5.298;2023-09-08T14:58:28;28.80;55.00
43995;DHT22;51687;52.160;5.298;2023-09-08T15:01:02;28.80;56.00
43995;DHT22;51687;52.160;5.298;2023-09-08T15:03:31;28.90;56.30
43995;DHT22;51687;52.160;5.298;2023-09-08T15:05:59;28.90;55.60
43995;DHT22;51687;52.160;5.298;2023-09-08T15:08:26;29.00;53.90
43995;DHT22;51687;52.160;5.298;2023-09-08T15:10:53;29.00;53.40
43995;DHT22;51687;52.160;5.298;2023-09-08T15:13:19;29.10;53.70
43995;DHT22;51687;52.160;5.298;2023-09-08T15:15:49;29.10;54.10
43995;DHT22;51687;52.160;5.298;2023-09-08T15:18:16;29.20;54.50
43995;DHT22;51687;52.160;5.298;2023-09-08T15:20:51;29.20;55.00
43995;DHT22;51687;52.160;5.298;2023-09-08T15:23:19;29.20;54.60
43995;DHT22;51687;52.160;5.298;2023-09-08T15:25:54;29.20;53.50
43995;DHT22;51687;52.160;5.298;2023-09-08T15:28:21;29.20;53.20
43995;DHT22;51687;52.160;5.298;2023-09-08T15:30:53;29.20;53.80
43995;DHT22;51687;52.160;5.298;2023-09-08T15:33:20;29.20;54.00
43995;DHT22;51687;52.160;5.298;2023-09-08T15:35:51;29.20;53.90
43995;DHT22;51687;52.160;5.298;2023-09-08T15:38:18;29.30;54.60
43995;DHT22;51687;52.160;5.298;2023-09-08T15:53:29;29.30;54.90
43995;DHT22;51687;52.160;5.298;2023-09-08T15:55:56;29.40;54.50
43995;DHT22;51687;52.160;5.298;2023-09-08T15:58:23;29.40;54.70
43995;DHT22;51687;52.160;5.298;2023-09-08T16:00:49;29.30;55.00
43995;DHT22;51687;52.160;5.298;2023-09-08T16:03:16;29.40;55.20
43995;DHT22;51687;52.160;5.298;2023-09-08T16:05:43;29.30;54.60
43995;DHT22;51687;52.160;5.298;2023-09-08T16:08:10;29.30;55.80
43995;DHT22;51687;52.160;5.298;2023-09-08T16:10:37;29.40;56.20
43995;DHT22;51687;52.160;5.298;2023-09-08T16:13:04;29.40;54.60
43995;DHT22;51687;52.160;5.298;2023-09-08T16:15:31;29.40;53.90
43995;DHT22;51687;52.160;5.298;2023-09-08T16:17:58;29.40;53.80
43995;DHT22;51687;52.160;5.298;2023-09-08T16:20:27;29.40;55.20
43995;DHT22;51687;52.160;5.298;2023-09-08T16:22:54;29.30;54.30
43995;DHT22;51687;52.160;5.298;2023-09-08T16:25:21;29.40;53.90
43995;DHT22;51687;52.160;5.298;2023-09-08T16:27:47;29.30;56.00
43995;DHT22;51687;52.160;5.298;2023-09-08T16:30:14;29.30;54.80
43995;DHT22;51687;52.160;5.298;2023-09-08T16:32:41;29.30;55.30
43995;DHT22;51687;52.160;5.298;2023-09-08T16:35:08;29.30;55.50
43995;DHT22;51687;52.160;5.298;2023-09-08T16:37:35;29.30;55.70
43995;DHT22;51687;52.160;5.298;2023-09-08T16:40:01;29.30;55.10
43995;DHT22;51687;52.160;5.298;2023-09-08T16:42:29;29.30;56.10
43995;DHT22;51687;52.160;5.298;2023-09-08T16:44:56;29.30;56.60
43995;DHT22;51687;52.160;5.298;2023-09-08T16:47:23;29.30;56.10
43995;DHT22;51687;52.160;5.298;2023-09-08T16:49:52;29.30;56.30
43995;DHT22;51687;52.160;5.298;2023-09-08T16:52:21;29.30;57.20
43995;DHT22;51687;52.160;5.298;2023-09-08T16:54:48;29.30;57.20
43995;DHT22;51687;52.160;5.298;2023-09-08T16:57:15;29.30;57.20
43995;DHT22;51687;52.160;5.298;2023-09-08T16:59:42;29.30;57.90
43995;DHT22;51687;52.160;5.298;2023-09-08T17:02:09;29.20;58.10
43995;DHT22;51687;52.160;5.298;2023-09-08T17:04:36;29.20;58.80
43995;DHT22;51687;52.160;5.298;2023-09-08T17:07:03;29.20;59.00
43995;DHT22;51687;52.160;5.298;2023-09-08T17:09:30;29.20;59.10
43995;DHT22;51687;52.160;5.298;2023-09-08T17:11:57;29.20;59.50
43995;DHT22;51687;52.160;5.298;2023-09-08T17:14:24;29.20;60.20
43995;DHT22;51687;52.160;5.298;2023-09-08T17:16:51;29.20;60.20
43995;DHT22;51687;52.160;5.298;2023-09-08T17:19:17;29.20;60.40
43995;DHT22;51687;52.160;5.298;2023-09-08T17:21:44;29.20;60.40
43995;DHT22;51687;52.160;5.298;2023-09-08T17:24:11;29.20;60.80
43995;DHT22;51687;52.160;5.298;2023-09-08T17:26:39;29.10;60.70
43995;DHT22;51687;52.160;5.298;2023-09-08T17:29:06;29.10;60.80
43995;DHT22;51687;52.160;5.298;2023-09-08T17:31:34;29.10;61.10
43995;DHT22;51687;52.160;5.298;2023-09-08T17:34:01;29.10;61.70
43995;DHT22;51687;52.160;5.298;2023-09-08T17:36:28;29.10;61.90
43995;DHT22;51687;52.160;5.298;2023-09-08T17:38:55;29.00;62.10
43995;DHT22;51687;52.160;5.298;2023-09-08T18:13:17;29.00;62.40
43995;DHT22;51687;52.160;5.298;2023-09-08T18:15:45;28.70;62.90
43995;DHT22;51687;52.160;5.298;2023-09-08T18:18:11;28.60;62.60
43995;DHT22;51687;52.160;5.298;2023-09-08T18:20:38;28.60;62.40
43995;DHT22;51687;52.160;5.298;2023-09-08T18:23:05;28.60;62.60
43995;DHT22;51687;52.160;5.298;2023-09-08T18:25:32;28.60;62.60
43995;DHT22;51687;52.160;5.298;2023-09-08T18:27:59;28.50;62.60
43995;DHT22;51687;52.160;5.298;2023-09-08T18:30:25;28.50;62.70
43995;DHT22;51687;52.160;5.298;2023-09-08T18:32:52;28.50;62.70
43995;DHT22;51687;52.160;5.298;2023-09-08T18:35:20;28.50;62.70
43995;DHT22;51687;52.160;5.298;2023-09-08T18:37:47;28.50;62.70
43995;DHT22;51687;52.160;5.298;2023-09-08T18:40:14;28.40;62.60
43995;DHT22;51687;52.160;5.298;2023-09-08T18:42:40;28.40;62.80
43995;DHT22;51687;52.160;5.298;2023-09-08T18:45:08;28.40;62.80
43995;DHT22;51687;52.160;5.298;2023-09-08T18:47:34;28.30;62.80
43995;DHT22;51687;52.160;5.298;2023-09-08T18:50:01;28.30;62.90
43995;DHT22;51687;52.160;5.298;2023-09-08T18:52:28;28.30;63.10
43995;DHT22;51687;52.160;5.298;2023-09-08T18:54:55;28.20;63.00
43995;DHT22;51687;52.160;5.298;2023-09-08T18:57:22;28.20;63.20
43995;DHT22;51687;52.160;5.298;2023-09-08T18:59:51;28.10;63.20
43995;DHT22;51687;52.160;5.298;2023-09-08T19:02:18;28.10;63.40
43995;DHT22;51687;52.160;5.298;2023-09-08T19:04:45;28.00;63.40
43995;DHT22;51687;52.160;5.298;2023-09-08T19:07:12;28.00;63.60
43995;DHT22;51687;52.160;5.298;2023-09-08T19:09:39;28.00;63.80
43995;DHT22;51687;52.160;5.298;2023-09-08T19:12:06;27.90;63.80
43995;DHT22;51687;52.160;5.298;2023-09-08T19:14:32;27.90;63.90
43995;DHT22;51687;52.160;5.298;2023-09-08T19:17:00;27.80;64.00
43995;DHT22;51687;52.160;5.298;2023-09-08T19:19:32;27.80;64.10
43995;DHT22;51687;52.160;5.298;2023-09-08T19:21:59;27.70;64.10
43995;DHT22;51687;52.160;5.298;2023-09-08T19:24:25;27.70;64.10
43995;DHT22;51687;52.160;5.298;2023-09-08T19:26:52;27.70;64.20
43995;DHT22;51687;52.160;5.298;2023-09-08T19:29:19;27.60;64.10
43995;DHT22;51687;52.160;5.298;2023-09-08T19:31:46;27.60;64.20
43995;DHT22;51687;52.160;5.298;2023-09-08T19:34:13;27.60;64.30
43995;DHT22;51687;52.160;5.298;2023-09-08T19:36:40;27.60;64.30
43995;DHT22;51687;52.160;5.298;2023-09-08T19:39:07;27.50;64.30
43995;DHT22;51687;52.160;5.298;2023-09-08T19:41:35;27.50;64.30
43995;DHT22;51687;52.160;5.298;2023-09-08T19:44:02;27.50;64.30
43995;DHT22;51687;52.160;5.298;2023-09-08T19:46:36;27.40;64.20
43995;DHT22;51687;52.160;5.298;2023-09-08T19:49:03;27.40;64.30
43995;DHT22;51687;52.160;5.298;2023-09-08T19:51:30;27.40;64.10
43995;DHT22;51687;52.160;5.298;2023-09-08T19:53:56;27.40;64.10
43995;DHT22;51687;52.160;5.298;2023-09-08T19:56:24;27.30;64.10
43995;DHT22;51687;52.160;5.298;2023-09-08T19:58:50;27.30;64.00
43995;DHT22;51687;52.160;5.298;2023-09-08T20:01:17;27.30;64.10
43995;DHT22;51687;52.160;5.298;2023-09-08T20:03:45;27.30;64.10
43995;DHT22;51687;52.160;5.298;2023-09-08T20:06:15;27.30;64.10
43995;DHT22;51687;52.160;5.298;2023-09-08T20:08:42;27.30;64.10
43995;DHT22;51687;52.160;5.298;2023-09-08T20:11:09;27.20;64.00
43995;DHT22;51687;52.160;5.298;2023-09-08T20:13:36;27.20;64.10
43995;DHT22;51687;52.160;5.298;2023-09-08T20:16:05;27.20;64.00
43995;DHT22;51687;52.160;5.298;2023-09-08T20:18:34;27.20;64.00
43995;DHT22;51687;52.160;5.298;2023-09-08T20:21:02;27.20;64.00
43995;DHT22;51687;52.160;5.298;2023-09-08T20:23:30;27.20;62.50
43995;DHT22;51687;52.160;5.298;2023-09-08T20:26:01;27.10;63.80
43995;DHT22;51687;52.160;5.298;2023-09-08T20:28:28;27.10;63.90
43995;DHT22;51687;52.160;5.298;2023-09-08T20:30:57;27.00;63.90
43995;DHT22;51687;52.160;5.298;2023-09-08T20:33:41;27.00;64.10
43995;DHT22;51687;52.160;5.298;2023-09-08T20:36:08;27.00;63.90
43995;DHT22;51687;52.160;5.298;2023-09-08T20:38:35;27.00;63.90
43995;DHT22;51687;52.160;5.298;2023-09-08T20:41:02;27.00;63.90
43995;DHT22;51687;52.160;5.298;2023-09-08T20:43:29;27.00;63.90
43995;DHT22;51687;52.160;5.298;2023-09-08T20:46:00;27.00;63.90
43995;DHT22;51687;52.160;5.298;2023-09-08T20:48:32;27.00;64.00
43995;DHT22;51687;52.160;5.298;2023-09-08T20:51:06;26.90;63.90
43995;DHT22;51687;52.160;5.298;2023-09-08T20:53:34;26.90;63.90
43995;DHT22;51687;52.160;5.298;2023-09-08T20:56:05;26.90;63.80
43995;DHT22;51687;52.160;5.298;2023-09-08T20:58:37;26.90;63.80
43995;DHT22;51687;52.160;5.298;2023-09-08T21:01:04;26.90;63.80
43995;DHT22;51687;52.160;5.298;2023-09-08T21:03:31;26.80;63.80
43995;DHT22;51687;52.160;5.298;2023-09-08T21:05:58;26.90;63.80
43995;DHT22;51687;52.160;5.298;2023-09-08T21:08:26;26.80;63.60
43995;DHT22;51687;52.160;5.298;2023-09-08T21:10:55;26.80;63.60
43995;DHT22;51687;52.160;5.298;2023-09-08T21:13:23;26.80;63.70
43995;DHT22;51687;52.160;5.298;2023-09-08T21:15:50;26.80;63.70
43995;DHT22;51687;52.160;5.298;2023-09-08T21:18:17;26.80;63.60
43995;DHT22;51687;52.160;5.298;2023-09-08T21:20:44;26.80;63.60
43995;DHT22;51687;52.160;5.298;2023-09-08T21:23:12;26.80;63.40
43995;DHT22;51687;52.160;5.298;2023-09-08T21:25:39;26.80;63.40
43995;DHT22;51687;52.160;5.298;2023-09-08T21:28:06;26.80;63.40
43995;DHT22;51687;52.160;5.298;2023-09-08T21:30:33;26.80;63.30
43995;DHT22;51687;52.160;5.298;2023-09-08T21:33:00;26.80;63.50
43995;DHT22;51687;52.160;5.298;2023-09-08T21:35:27;26.80;63.10
43995;DHT22;51687;52.160;5.298;2023-09-08T21:37:53;26.80;63.00
43995;DHT22;51687;52.160;5.298;2023-09-08T21:40:20;26.80;63.10
43995;DHT22;51687;52.160;5.298;2023-09-08T21:42:47;26.80;63.00
43995;DHT22;51687;52.160;5.298;2023-09-08T21:45:14;26.80;63.10
43995;DHT22;51687;52.160;5.298;2023-09-08T21:47:40;26.80;63.00
43995;DHT22;51687;52.160;5.298;2023-09-08T21:50:08;26.80;63.00
43995;DHT22;51687;52.160;5.298;2023-09-08T21:52:34;26.80;62.90
43995;DHT22;51687;52.160;5.298;2023-09-08T21:55:06;26.80;62.80
43995;DHT22;51687;52.160;5.298;2023-09-08T21:57:33;26.80;62.80
43995;DHT22;51687;52.160;5.298;2023-09-08T22:00:00;26.80;62.70
43995;DHT22;51687;52.160;5.298;2023-09-08T22:02:26;26.70;62.50
43995;DHT22;51687;52.160;5.298;2023-09-08T22:04:54;26.80;62.40
43995;DHT22;51687;52.160;5.298;2023-09-08T22:07:21;26.80;62.50
43995;DHT22;51687;52.160;5.298;2023-09-08T22:09:50;26.80;62.50
43995;DHT22;51687;52.160;5.298;2023-09-08T22:12:17;26.80;62.20
43995;DHT22;51687;52.160;5.298;2023-09-08T22:14:44;26.70;62.20
43995;DHT22;51687;52.160;5.298;2023-09-08T22:17:11;26.70;62.00
43995;DHT22;51687;52.160;5.298;2023-09-08T22:19:37;26.70;62.10
43995;DHT22;51687;52.160;5.298;2023-09-08T22:22:05;26.70;62.10
43995;DHT22;51687;52.160;5.298;2023-09-08T22:27:01;26.70;62.20
43995;DHT22;51687;52.160;5.298;2023-09-08T22:29:31;26.70;62.00
43995;DHT22;51687;52.160;5.298;2023-09-08T22:31:58;26.70;61.80
43995;DHT22;51687;52.160;5.298;2023-09-08T22:34:25;26.70;61.90
43995;DHT22;51687;52.160;5.298;2023-09-08T22:36:52;26.70;61.90
43995;DHT22;51687;52.160;5.298;2023-09-08T22:39:19;26.70;62.10
43995;DHT22;51687;52.160;5.298;2023-09-08T22:41:46;26.60;61.80
43995;DHT22;51687;52.160;5.298;2023-09-08T22:44:13;26.60;61.80
43995;DHT22;51687;52.160;5.298;2023-09-08T22:46:40;26.60;61.70
43995;DHT22;51687;52.160;5.298;2023-09-08T22:49:07;26.60;61.80
43995;DHT22;51687;52.160;5.298;2023-09-08T22:51:34;26.60;61.80
43995;DHT22;51687;52.160;5.298;2023-09-08T22:54:01;26.60;61.70
43995;DHT22;51687;52.160;5.298;2023-09-08T22:56:32;26.60;61.60
43995;DHT22;51687;52.160;5.298;2023-09-08T22:58:58;26.60;61.40
43995;DHT22;51687;52.160;5.298;2023-09-08T23:01:25;26.60;61.50
43995;DHT22;51687;52.160;5.298;2023-09-08T23:03:52;26.60;61.50
43995;DHT22;51687;52.160;5.298;2023-09-08T23:06:19;26.60;61.50
43995;DHT22;51687;52.160;5.298;2023-09-08T23:08:46;26.60;61.40
43995;DHT22;51687;52.160;5.298;2023-09-08T23:11:12;26.60;61.40
43995;DHT22;51687;52.160;5.298;2023-09-08T23:13:40;26.60;61.30
43995;DHT22;51687;52.160;5.298;2023-09-08T23:16:13;26.60;61.60
43995;DHT22;51687;52.160;5.298;2023-09-08T23:18:40;26.60;61.40
43995;DHT22;51687;52.160;5.298;2023-09-08T23:21:07;26.50;61.70
43995;DHT22;51687;52.160;5.298;2023-09-08T23:23:33;26.60;61.60
43995;DHT22;51687;52.160;5.298;2023-09-08T23:26:02;26.50;61.50
43995;DHT22;51687;52.160;5.298;2023-09-08T23:28:29;26.50;61.50
43995;DHT22;51687;52.160;5.298;2023-09-08T23:30:56;26.50;61.60
43995;DHT22;51687;52.160;5.298;2023-09-08T23:33:23;26.50;61.50
43995;DHT22;51687;52.160;5.298;2023-09-08T23:35:50;26.50;61.50
43995;DHT22;51687;52.160;5.298;2023-09-08T23:38:16;26.50;61.30
43995;DHT22;51687;52.160;5.298;2023-09-08T23:40:43;26.50;61.30
43995;DHT22;51687;52.160;5.298;2023-09-08T23:43:10;26.50;61.40
43995;DHT22;51687;52.160;5.298;2023-09-08T23:45:36;26.50;61.40
43995;DHT22;51687;52.160;5.298;2023-09-08T23:48:03;26.50;61.30
43995;DHT22;51687;52.160;5.298;2023-09-08T23:50:51;26.50;61.30
43995;DHT22;51687;52.160;5.298;2023-09-08T23:53:19;26.50;63.60
43995;DHT22;51687;52.160;5.298;2023-09-08T23:55:47;26.50;61.50
43995;DHT22;51687;52.160;5.298;2023-09-08T23:58:16;26.50;61.40
